createdAt,value
2023-04-10T00:01:20.764Z,22.08
2023-04-10T00:03:48.172Z,22.13
2023-04-10T00:06:15.943Z,24.75
2023-04-10T00:08:43.292Z,21.92
2023-04-10T00:11:10.520Z,22.35
2023-04-10T00:13:37.707Z,23.55
2023-04-10T00:16:05.456Z,28.33
2023-04-10T00:18:32.731Z,25.15
2023-04-10T00:21:00.003Z,23.73
2023-04-10T00:23:27.158Z,24.58
2023-04-10T00:25:54.470Z,23.67
2023-04-10T00:28:21.658Z,21.52
2023-04-10T00:30:49.127Z,22.60
2023-04-10T00:33:16.487Z,23.95
2023-04-10T00:35:43.785Z,23.73
2023-04-10T00:38:11.138Z,24.13
2023-04-10T00:40:38.490Z,25.88
2023-04-10T00:43:05.698Z,24.50
2023-04-10T00:45:33.049Z,24.98
2023-04-10T00:48:00.579Z,25.20
2023-04-10T00:50:27.912Z,25.00
2023-04-10T00:52:55.148Z,25.90
2023-04-10T00:55:23.607Z,27.17
2023-04-10T00:57:50.894Z,20.83
2023-04-10T01:00:19.044Z,25.33
2023-04-10T01:02:48.465Z,22.75
2023-04-10T01:05:17.934Z,23.42
2023-04-10T01:07:57.183Z,21.75
2023-04-10T01:10:36.833Z,24.13
2023-04-10T01:13:11.432Z,23.05
2023-04-10T01:15:47.886Z,22.45
2023-04-10T01:18:51.139Z,22.33
2023-04-10T01:21:18.814Z,24.33
2023-04-10T01:24:04.873Z,25.05
2023-04-10T01:27:03.181Z,22.88
2023-04-10T01:29:34.225Z,23.23
2023-04-10T01:32:20.709Z,25.40
2023-04-10T01:34:54.328Z,23.80
2023-04-10T01:37:26.275Z,22.00
2023-04-10T01:40:06.816Z,26.05
2023-04-10T01:42:40.029Z,24.02
2023-04-10T01:45:12.372Z,23.95
2023-04-10T01:47:40.382Z,23.50
2023-04-10T01:50:09.119Z,26.17
2023-04-10T01:52:37.332Z,23.58
2023-04-10T01:55:20.592Z,27.23
2023-04-10T01:57:53.579Z,22.75
2023-04-10T02:00:22.592Z,22.70
2023-04-10T02:02:51.153Z,24.52
2023-04-10T02:05:18.755Z,23.67
2023-04-10T02:08:14.632Z,23.33
2023-04-10T02:10:49.732Z,26.27
2023-04-10T02:13:22.292Z,23.33
2023-04-10T02:15:52.412Z,25.00
2023-04-10T02:18:22.229Z,28.45
2023-04-10T02:20:50.017Z,25.70
2023-04-10T02:23:18.094Z,24.17
2023-04-10T02:25:45.676Z,23.92
2023-04-10T02:28:12.965Z,24.75
2023-04-10T02:30:40.222Z,23.15
2023-04-10T02:33:07.629Z,27.52
2023-04-10T02:35:35.084Z,24.35
2023-04-10T02:38:04.040Z,26.02
2023-04-10T02:40:35.768Z,25.23
2023-04-10T02:43:12.671Z,26.65
2023-04-10T02:45:41.931Z,22.42
2023-04-10T02:48:11.490Z,25.35
2023-04-10T02:50:38.939Z,24.83
2023-04-10T02:53:06.294Z,27.58
2023-04-10T02:55:33.632Z,27.42
2023-04-10T02:58:00.819Z,29.30
2023-04-10T03:00:28.128Z,27.70
2023-04-10T03:03:11.583Z,23.30
2023-04-10T03:05:49.727Z,24.20
2023-04-10T03:08:21.192Z,26.80
2023-04-10T03:10:48.864Z,25.10
2023-04-10T03:13:16.452Z,25.58
2023-04-10T03:15:43.771Z,25.25
2023-04-10T03:18:11.308Z,27.73
2023-04-10T03:20:41.338Z,25.48
2023-04-10T03:23:09.037Z,29.30
2023-04-10T03:25:36.940Z,25.45
2023-04-10T03:28:06.356Z,24.88
2023-04-10T03:30:35.961Z,27.15
2023-04-10T03:33:03.829Z,27.27
2023-04-10T03:35:31.567Z,26.50
2023-04-10T03:37:59.788Z,24.58
2023-04-10T03:40:27.225Z,26.15
2023-04-10T03:42:54.553Z,26.27
2023-04-10T03:45:21.863Z,27.42
2023-04-10T03:47:49.260Z,29.73
2023-04-10T03:50:16.855Z,26.05
2023-04-10T03:52:53.147Z,31.05
2023-04-10T03:55:22.812Z,28.42
2023-04-10T03:57:51.745Z,24.33
2023-04-10T04:00:22.712Z,25.17
2023-04-10T04:02:52.921Z,28.27
2023-04-10T04:05:46.120Z,31.25
2023-04-10T04:08:42.512Z,25.95
2023-04-10T04:11:28.364Z,26.60
2023-04-10T04:14:02.075Z,31.30
2023-04-10T04:16:42.148Z,29.70
2023-04-10T04:19:22.254Z,29.00
2023-04-10T04:22:12.339Z,29.05
2023-04-10T04:25:03.259Z,28.63
2023-04-10T04:27:53.189Z,24.60
2023-04-10T04:30:55.986Z,26.58
2023-04-10T04:33:46.285Z,25.50
2023-04-10T04:36:42.587Z,29.05
2023-04-10T04:39:36.869Z,27.23
2023-04-10T04:42:24.424Z,27.70
2023-04-10T04:44:51.699Z,26.92
2023-04-10T04:47:38.439Z,24.10
2023-04-10T04:53:34.734Z,26.38
2023-04-10T04:56:16.219Z,27.17
2023-04-10T04:59:01.929Z,27.98
2023-04-10T05:01:36.267Z,28.17
2023-04-10T05:04:09.726Z,27.15
2023-04-10T05:06:55.903Z,25.73
2023-04-10T05:09:35.146Z,31.38
2023-04-10T05:12:02.552Z,27.55
2023-04-10T05:15:02.170Z,29.05
2023-04-10T05:17:51.152Z,25.13
2023-04-10T05:20:37.466Z,27.02
2023-04-10T05:23:36.945Z,29.15
2023-04-10T05:26:41.522Z,30.50
2023-04-10T05:29:34.820Z,27.67
2023-04-10T05:32:20.580Z,25.88
2023-04-10T05:35:08.272Z,28.45
2023-04-10T05:37:44.632Z,26.67
2023-04-10T05:40:35.448Z,26.27
2023-04-10T05:43:21.959Z,27.02
2023-04-10T05:46:09.149Z,26.48
2023-04-10T05:48:56.930Z,26.50
2023-04-10T05:51:52.080Z,29.02
2023-04-10T05:54:31.811Z,29.92
2023-04-10T05:57:10.882Z,26.65
2023-04-10T06:00:18.087Z,25.50
2023-04-10T06:03:24.150Z,27.10
2023-04-10T06:05:58.041Z,27.00
2023-04-10T06:08:25.579Z,27.20
2023-04-10T06:10:53.948Z,27.67
2023-04-10T06:13:21.670Z,25.90
2023-04-10T06:15:52.581Z,27.27
2023-04-10T06:18:19.875Z,27.38
2023-04-10T06:20:48.658Z,28.58
2023-04-10T06:23:16.120Z,26.35
2023-04-10T06:25:44.044Z,28.10
2023-04-10T06:28:11.586Z,27.75
2023-04-10T06:30:39.516Z,28.92
2023-04-10T06:33:07.884Z,26.20
2023-04-10T06:35:40.735Z,29.52
2023-04-10T06:38:08.046Z,25.95
2023-04-10T06:40:36.722Z,23.95
2023-04-10T06:43:03.979Z,28.38
2023-04-10T06:45:39.302Z,31.70
2023-04-10T06:48:06.760Z,29.83
2023-04-10T06:50:34.086Z,25.40
2023-04-10T06:53:01.438Z,27.15
2023-04-10T06:55:29.250Z,25.98
2023-04-10T06:57:56.831Z,24.42
2023-04-10T07:00:25.766Z,28.42
2023-04-10T07:02:53.012Z,24.75
2023-04-10T07:05:20.462Z,24.15
2023-04-10T07:07:47.804Z,28.67
2023-04-10T07:10:15.104Z,25.33
2023-04-10T07:12:43.578Z,22.08
2023-04-10T07:15:12.621Z,25.85
2023-04-10T07:17:39.946Z,23.55
2023-04-10T07:20:07.808Z,25.05
2023-04-10T07:22:35.073Z,23.38
2023-04-10T07:25:02.426Z,24.05
2023-04-10T07:27:29.766Z,27.25
2023-04-10T07:29:57.211Z,23.90
2023-04-10T07:32:24.696Z,23.17
2023-04-10T07:34:52.191Z,23.08
2023-04-10T07:37:19.636Z,23.58
2023-04-10T07:39:47.468Z,23.88
2023-04-10T07:42:14.732Z,24.60
2023-04-10T07:44:41.925Z,22.35
2023-04-10T07:47:09.249Z,21.42
2023-04-10T07:49:36.933Z,20.42
2023-04-10T07:52:04.388Z,20.92
2023-04-10T07:54:34.873Z,21.77
2023-04-10T07:57:02.134Z,20.65
2023-04-10T07:59:29.451Z,21.45
2023-04-10T08:01:56.802Z,19.73
2023-04-10T08:04:24.132Z,19.65
2023-04-10T08:06:51.681Z,21.75
2023-04-10T08:09:19.164Z,20.73
2023-04-10T08:11:46.555Z,19.50
2023-04-10T08:14:13.942Z,19.27
2023-04-10T08:16:46.026Z,16.98
2023-04-10T08:19:13.386Z,18.70
2023-04-10T08:21:40.681Z,17.85
2023-04-10T08:24:07.940Z,16.92
2023-04-10T08:26:35.287Z,16.55
2023-04-10T08:29:02.490Z,16.67
2023-04-10T08:31:30.164Z,16.58
2023-04-10T08:33:58.414Z,16.02
2023-04-10T08:36:27.331Z,15.65
2023-04-10T08:38:54.627Z,15.63
2023-04-10T08:41:21.924Z,15.48
2023-04-10T08:43:50.209Z,17.85
2023-04-10T08:46:17.702Z,14.48
2023-04-10T08:48:53.834Z,14.90
2023-04-10T08:51:26.402Z,15.07
2023-04-10T08:54:03.812Z,15.55
2023-04-10T08:56:32.789Z,12.27
2023-04-10T08:59:01.838Z,13.93
2023-04-10T09:01:29.285Z,16.00
2023-04-10T09:03:56.967Z,14.65
2023-04-10T09:06:24.371Z,13.68
2023-04-10T09:08:51.634Z,14.10
2023-04-10T09:11:18.913Z,14.75
2023-04-10T09:13:46.526Z,14.70
2023-04-10T09:16:14.359Z,14.75
2023-04-10T09:18:48.763Z,14.73
2023-04-10T09:21:19.471Z,15.85
2023-04-10T09:23:48.036Z,11.63
2023-04-10T09:26:34.261Z,13.07
2023-04-10T09:29:03.822Z,11.50
2023-04-10T09:31:38.808Z,14.52
2023-04-10T09:34:22.551Z,13.50
2023-04-10T09:36:57.981Z,13.48
2023-04-10T09:39:43.303Z,13.38
2023-04-10T09:42:14.982Z,12.88
2023-04-10T09:44:43.186Z,29.50
2023-04-10T09:47:21.839Z,14.05
2023-04-10T09:50:00.931Z,12.02
2023-04-10T09:52:35.003Z,11.90
2023-04-10T09:55:04.686Z,11.52
2023-04-10T09:57:33.789Z,11.95
2023-04-10T10:00:04.584Z,11.68
2023-04-10T10:02:37.308Z,13.40
2023-04-10T10:05:05.552Z,10.43
2023-04-10T10:07:33.280Z,10.95
2023-04-10T10:10:03.429Z,11.45
2023-04-10T10:12:51.803Z,14.15
2023-04-10T10:15:28.122Z,11.70
2023-04-10T10:18:22.744Z,13.18
2023-04-10T10:20:51.156Z,11.05
2023-04-10T10:23:20.223Z,9.57
2023-04-10T10:25:48.867Z,9.38
2023-04-10T10:28:18.020Z,10.40
2023-04-10T10:30:47.184Z,9.68
2023-04-10T10:33:14.848Z,9.35
2023-04-10T10:35:42.467Z,9.75
2023-04-10T10:38:10.429Z,10.48
2023-04-10T10:41:01.045Z,12.75
2023-04-10T10:43:43.241Z,9.90
2023-04-10T10:46:16.909Z,8.98
2023-04-10T10:49:02.572Z,8.95
2023-04-10T10:51:51.461Z,9.43
2023-04-10T10:54:57.234Z,9.05
2023-04-10T10:57:46.498Z,7.93
2023-04-10T11:00:14.860Z,8.20
2023-04-10T11:02:42.249Z,9.25
2023-04-10T11:05:09.736Z,8.40
2023-04-10T11:08:05.994Z,7.90
2023-04-10T11:11:06.049Z,7.50
2023-04-10T11:13:41.243Z,9.02
2023-04-10T11:16:12.977Z,7.90
2023-04-10T11:18:47.295Z,8.93
2023-04-10T11:21:23.645Z,8.52
2023-04-10T11:23:51.146Z,7.85
2023-04-10T11:26:39.582Z,8.02
2023-04-10T11:29:07.574Z,8.50
2023-04-10T11:31:34.979Z,7.72
2023-04-10T11:34:08.111Z,8.23
2023-04-10T11:36:39.345Z,8.65
2023-04-10T11:39:13.558Z,7.47
2023-04-10T11:41:42.885Z,8.15
2023-04-10T11:44:14.096Z,8.10
2023-04-10T11:46:43.000Z,7.78
2023-04-10T11:49:11.627Z,9.55
2023-04-10T11:51:40.674Z,8.93
2023-04-10T11:54:12.751Z,8.20
2023-04-10T11:56:42.297Z,9.02
2023-04-10T11:59:19.662Z,9.73
2023-04-10T12:01:47.533Z,8.32
2023-04-10T12:04:19.741Z,8.60
2023-04-10T12:06:56.403Z,8.18
2023-04-10T12:09:24.346Z,9.07
2023-04-10T12:12:09.538Z,6.80
2023-04-10T12:14:38.754Z,7.80
2023-04-10T12:17:07.880Z,7.85
2023-04-10T12:19:37.932Z,7.80
2023-04-10T12:22:05.704Z,7.15
2023-04-10T12:24:53.427Z,6.93
2023-04-10T12:27:29.006Z,6.78
2023-04-10T12:29:58.054Z,7.18
2023-04-10T12:32:27.625Z,6.07
2023-04-10T12:34:59.051Z,5.82
2023-04-10T12:37:54.581Z,6.43
2023-04-10T12:40:22.064Z,7.10
2023-04-10T12:42:49.312Z,8.52
2023-04-10T12:45:16.570Z,6.57
2023-04-10T12:47:47.149Z,7.80
2023-04-10T12:50:16.370Z,7.10
2023-04-10T12:52:46.101Z,7.82
2023-04-10T12:55:18.000Z,6.57
2023-04-10T12:57:46.834Z,7.97
2023-04-10T13:00:17.172Z,7.05
2023-04-10T13:02:45.493Z,7.10
2023-04-10T13:05:13.002Z,6.40
2023-04-10T13:07:41.223Z,7.00
2023-04-10T13:10:09.220Z,6.80
2023-04-10T13:12:38.959Z,7.20
2023-04-10T13:15:07.833Z,6.78
2023-04-10T13:17:35.875Z,6.25
2023-04-10T13:20:03.709Z,6.88
2023-04-10T13:22:31.060Z,6.68
2023-04-10T13:24:58.274Z,6.80
2023-04-10T13:27:25.668Z,6.80
2023-04-10T13:29:54.932Z,5.72
2023-04-10T13:32:23.209Z,6.47
2023-04-10T13:34:50.664Z,6.07
2023-04-10T13:37:17.882Z,6.60
2023-04-10T13:39:45.331Z,6.57
2023-04-10T13:42:13.794Z,5.95
2023-04-10T13:44:41.032Z,5.45
2023-04-10T13:47:08.424Z,6.07
2023-04-10T13:49:35.692Z,5.75
2023-04-10T13:52:03.141Z,5.60
2023-04-10T13:54:30.401Z,6.25
2023-04-10T13:56:59.682Z,5.30
2023-04-10T13:59:27.003Z,5.50
2023-04-10T14:01:54.619Z,6.55
2023-04-10T14:04:21.851Z,5.60
2023-04-10T14:06:51.673Z,6.03
2023-04-10T14:09:19.616Z,5.97
2023-04-10T14:11:47.136Z,6.28
2023-04-10T14:14:14.506Z,5.13
2023-04-10T14:16:41.947Z,6.20
2023-04-10T14:19:09.258Z,5.50
2023-04-10T14:21:37.417Z,8.18
2023-04-10T14:24:04.835Z,6.18
2023-04-10T14:26:32.090Z,5.50
2023-04-10T14:28:59.286Z,5.22
2023-04-10T14:31:28.415Z,5.60
2023-04-10T14:33:56.779Z,6.93
2023-04-10T14:36:24.096Z,5.40
2023-04-10T14:38:51.466Z,5.38
2023-04-10T14:41:18.811Z,5.72
2023-04-10T14:43:45.999Z,5.93
2023-04-10T14:46:13.287Z,6.10
2023-04-10T14:48:40.840Z,6.32
2023-04-10T14:51:12.956Z,6.13
2023-04-10T14:53:40.514Z,6.35
2023-04-10T14:56:15.012Z,6.40
2023-04-10T14:58:43.331Z,6.55
2023-04-10T15:01:13.979Z,6.78
2023-04-10T15:03:41.461Z,6.95
2023-04-10T15:06:09.076Z,6.07
2023-04-10T15:08:36.377Z,7.00
2023-04-10T15:11:05.385Z,6.60
2023-04-10T15:13:33.238Z,6.55
2023-04-10T15:16:00.755Z,7.40
2023-04-10T15:18:28.076Z,6.70
2023-04-10T15:20:56.114Z,7.65
2023-04-10T15:23:24.271Z,7.07
2023-04-10T15:25:51.649Z,7.20
2023-04-10T15:28:19.005Z,7.05
2023-04-10T15:30:48.668Z,8.13
2023-04-10T15:33:17.572Z,7.35
2023-04-10T15:35:52.581Z,7.32
2023-04-10T15:38:20.218Z,6.72
2023-04-10T15:40:47.825Z,7.38
2023-04-10T15:43:15.072Z,6.97
2023-04-10T15:45:42.302Z,6.88
2023-04-10T15:48:09.510Z,7.30
2023-04-10T15:50:43.315Z,7.00
2023-04-10T15:53:10.623Z,6.88
2023-04-10T15:55:41.159Z,6.72
2023-04-10T15:58:08.528Z,7.70
2023-04-10T16:00:36.083Z,8.13
2023-04-10T16:03:03.683Z,8.70
2023-04-10T16:05:31.153Z,8.00
2023-04-10T16:07:58.405Z,7.13
2023-04-10T16:10:25.699Z,7.60
2023-04-10T16:12:52.995Z,7.65
2023-04-10T16:15:20.520Z,7.00
2023-04-10T16:17:49.098Z,7.28
2023-04-10T16:20:16.402Z,7.95
2023-04-10T16:22:43.672Z,8.70
2023-04-10T16:25:10.901Z,7.65
2023-04-10T16:27:38.128Z,7.25
2023-04-10T16:30:06.619Z,7.70
2023-04-10T16:32:34.385Z,8.00
2023-04-10T16:35:01.732Z,7.65
2023-04-10T16:37:29.096Z,7.95
2023-04-10T16:39:56.489Z,8.45
2023-04-10T16:42:23.772Z,9.88
2023-04-10T16:44:52.193Z,7.70
2023-04-10T16:47:20.519Z,9.10
2023-04-10T16:49:48.169Z,7.95
2023-04-10T16:52:15.520Z,7.72
2023-04-10T16:54:43.059Z,8.20
2023-04-10T16:57:10.420Z,8.00
2023-04-10T16:59:37.709Z,8.65
2023-04-10T17:02:05.072Z,8.60
2023-04-10T17:04:32.352Z,8.80
2023-04-10T17:06:59.586Z,10.02
2023-04-10T17:09:27.347Z,10.63
2023-04-10T17:11:54.615Z,7.72
2023-04-10T17:14:21.999Z,8.20
2023-04-10T17:16:49.263Z,8.48
2023-04-10T17:19:17.604Z,9.23
2023-04-10T17:21:44.945Z,9.20
2023-04-10T17:24:12.178Z,8.18
2023-04-10T17:26:39.554Z,8.10
2023-04-10T17:29:06.887Z,8.98
2023-04-10T17:31:34.524Z,8.27
2023-04-10T17:34:01.963Z,10.02
2023-04-10T17:36:29.458Z,8.90
2023-04-10T17:38:56.953Z,10.32
2023-04-10T17:41:24.590Z,7.97
2023-04-10T17:43:51.907Z,9.07
2023-04-10T17:46:19.142Z,10.38
2023-04-10T17:48:46.486Z,9.05
2023-04-10T17:51:13.833Z,9.43
2023-04-10T17:53:41.357Z,9.88
2023-04-10T17:56:08.656Z,9.75
2023-04-10T17:58:35.987Z,9.68
2023-04-10T18:01:03.394Z,8.50
2023-04-10T18:03:30.927Z,9.13
2023-04-10T18:05:58.212Z,8.50
2023-04-10T18:08:26.194Z,10.70
2023-04-10T18:10:53.470Z,9.07
2023-04-10T18:13:20.767Z,9.68
2023-04-10T18:15:47.946Z,9.55
2023-04-10T18:18:15.443Z,9.10
2023-04-10T18:20:42.631Z,8.60
2023-04-10T18:23:09.855Z,9.82
2023-04-10T18:25:37.216Z,12.27
2023-04-10T18:28:14.429Z,11.98
2023-04-10T18:30:43.269Z,10.20
2023-04-10T18:33:11.414Z,10.57
2023-04-10T18:35:39.149Z,10.35
2023-04-10T18:38:07.166Z,11.32
2023-04-10T18:40:37.100Z,10.60
2023-04-10T18:43:06.107Z,9.35
2023-04-10T18:45:35.230Z,12.05
2023-04-10T18:48:04.856Z,9.85
2023-04-10T18:50:41.034Z,9.55
2023-04-10T18:53:08.660Z,10.35
2023-04-10T18:55:35.859Z,9.13
2023-04-10T18:58:03.195Z,14.32
2023-04-10T19:00:32.137Z,9.32
2023-04-10T19:02:59.613Z,11.00
2023-04-10T19:05:27.083Z,14.95
2023-04-10T19:08:03.492Z,9.32
2023-04-10T19:10:32.504Z,8.57
2023-04-10T19:12:59.965Z,9.73
2023-04-10T19:15:27.361Z,9.23
2023-04-10T19:17:55.025Z,9.68
2023-04-10T19:20:49.387Z,10.40
2023-04-10T19:23:10.370Z,9.27
2023-04-10T19:25:37.728Z,10.30
2023-04-10T19:28:05.201Z,9.80
2023-04-10T19:30:32.612Z,9.10
2023-04-10T19:33:00.120Z,10.68
2023-04-10T19:35:27.480Z,10.10
2023-04-10T19:37:58.269Z,12.10
2023-04-10T19:40:25.574Z,11.70
2023-04-10T19:42:53.094Z,12.18
2023-04-10T19:45:22.180Z,10.10
2023-04-10T19:47:51.132Z,11.43
2023-04-10T19:50:18.493Z,9.45
2023-04-10T19:52:45.812Z,10.55
2023-04-10T19:55:13.422Z,9.82
2023-04-10T19:57:40.679Z,10.00
2023-04-10T20:00:09.894Z,10.68
2023-04-10T20:02:40.854Z,9.43
2023-04-10T20:05:09.046Z,9.40
2023-04-10T20:07:36.558Z,9.68
2023-04-10T20:10:04.440Z,10.15
2023-04-10T20:12:34.974Z,11.05
2023-04-10T20:15:03.871Z,10.82
2023-04-10T20:17:31.646Z,9.95
2023-04-10T20:19:58.898Z,9.82
2023-04-10T20:22:26.222Z,12.27
2023-04-10T20:24:53.516Z,9.95
2023-04-10T20:27:20.792Z,10.63
2023-04-10T20:29:48.047Z,9.63
2023-04-10T20:32:15.539Z,10.20
2023-04-10T20:34:42.850Z,11.07
2023-04-10T20:37:10.098Z,9.95
2023-04-10T20:39:38.352Z,10.20
2023-04-10T20:42:06.613Z,10.15
2023-04-10T20:44:37.712Z,10.95
2023-04-10T20:47:08.386Z,9.70
2023-04-10T20:49:37.594Z,10.25
2023-04-10T20:52:05.523Z,10.63
2023-04-10T20:54:33.485Z,10.02
2023-04-10T20:57:01.876Z,10.32
2023-04-10T20:59:33.113Z,10.93
2023-04-10T21:02:00.938Z,9.93
2023-04-10T21:04:28.324Z,8.95
2023-04-10T21:06:55.779Z,10.93
2023-04-10T21:09:23.039Z,10.68
2023-04-10T21:11:50.289Z,10.80
2023-04-10T21:14:17.521Z,10.23
2023-04-10T21:16:46.033Z,10.10
2023-04-10T21:19:13.857Z,10.02
2023-04-10T21:21:41.109Z,9.88
2023-04-10T21:24:08.371Z,11.57
2023-04-10T21:26:35.721Z,10.00
2023-04-10T21:29:03.008Z,11.32
2023-04-10T21:31:30.381Z,9.75
2023-04-10T21:33:57.678Z,10.15
2023-04-10T21:36:25.011Z,9.43
2023-04-10T21:38:52.630Z,11.35
2023-04-10T21:41:20.156Z,10.40
2023-04-10T21:43:47.353Z,9.93
2023-04-10T21:46:14.648Z,10.40
2023-04-10T21:48:42.079Z,10.90
2023-04-10T21:51:09.322Z,11.13
2023-04-10T21:53:36.608Z,11.00
2023-04-10T21:56:04.072Z,10.63
2023-04-10T21:58:32.420Z,10.05
2023-04-10T22:01:00.851Z,12.82
2023-04-10T22:03:28.578Z,12.18
2023-04-10T22:05:56.067Z,9.02
2023-04-10T22:08:23.458Z,10.88
2023-04-10T22:10:51.092Z,12.82
2023-04-10T22:13:29.822Z,11.73
2023-04-10T22:15:58.375Z,11.25
2023-04-10T22:18:25.888Z,10.65
2023-04-10T22:20:53.104Z,10.10
2023-04-10T22:23:20.458Z,9.95
2023-04-10T22:25:47.701Z,10.45
2023-04-10T22:28:14.998Z,11.75
2023-04-10T22:30:42.331Z,11.00
2023-04-10T22:33:10.738Z,14.88
2023-04-10T22:35:38.335Z,11.00
2023-04-10T22:38:05.695Z,9.32
2023-04-10T22:40:32.988Z,11.43
2023-04-10T22:43:00.256Z,11.10
2023-04-10T22:45:27.555Z,12.35
2023-04-10T22:47:54.842Z,11.65
2023-04-10T22:50:22.120Z,10.95
2023-04-10T22:52:49.397Z,9.80
2023-04-10T22:55:16.732Z,10.93
2023-04-10T22:57:48.454Z,10.90
2023-04-10T23:00:16.370Z,11.82
2023-04-10T23:02:43.851Z,10.10
2023-04-10T23:05:11.374Z,11.18
2023-04-10T23:07:38.564Z,10.70
2023-04-10T23:10:06.582Z,10.65
2023-04-10T23:12:33.959Z,10.10
2023-04-10T23:15:01.358Z,11.90
2023-04-10T23:17:28.672Z,11.95
2023-04-10T23:19:56.129Z,12.07
2023-04-10T23:22:23.423Z,11.43
2023-04-10T23:24:55.135Z,10.75
2023-04-10T23:27:22.903Z,11.45
2023-04-10T23:29:50.589Z,11.45
2023-04-10T23:32:17.881Z,10.63
2023-04-10T23:34:45.127Z,11.82
2023-04-10T23:37:12.369Z,11.18
2023-04-10T23:39:40.111Z,11.27
2023-04-10T23:42:07.360Z,9.77
2023-04-10T23:44:34.809Z,12.32
2023-04-10T23:47:02.147Z,11.25
2023-04-10T23:49:29.568Z,10.80
2023-04-10T23:51:56.986Z,10.48
2023-04-10T23:54:24.362Z,10.18
2023-04-10T23:56:51.568Z,11.75
2023-04-10T23:59:19.244Z,10.52
